This is the latest recevied weather packets stored in our database for station/object EA1GCN-10. If no packets are shown the sender has not sent any weather packets the latest 1 day(s).
| Time | Temp. | Humidity | Pressure | Rain* | Wind** | Luminosity | Snow |
|---|---|---|---|---|---|---|---|
| 1778067719 | 21.67° C | 44% | 1015 hPa | - | - | - | - |
| 1778060519 | 18.89° C | 48% | 1015 hPa | - | - | - | - |
| 1778058718 | 18.33° C | 53% | 1015 hPa | - | - | - | - |
| 1778056918 | 17.78° C | 53% | 1015 hPa | - | - | - | - |
| 1778055118 | 17.22° C | 56% | 1015 hPa | - | - | - | - |
| 1778053318 | 15.56° C | 58% | 1015 hPa | - | - | - | - |
| 1778051518 | 16.11° C | 58% | 1015 hPa | - | - | - | - |
| 1778046117 | 18.33° C | 62% | 1015 hPa | - | - | - | - |
| 1778044317 | 18.33° C | 62% | 1015 hPa | - | - | - | - |
| 1778042517 | 18.33° C | 62% | 1014 hPa | - | - | - | - |
| 1778040717 | 18.89° C | 62% | 1015 hPa | - | - | - | - |
| 1778038917 | 18.89° C | 61% | 1015 hPa | - | - | - | - |
| 1778037117 | 18.89° C | 61% | 1015 hPa | - | - | - | - |
| 1778035317 | 18.89° C | 61% | 1015 hPa | - | - | - | - |
| 1778029916 | 19.44° C | 59% | 1015 hPa | - | - | - | - |
| 1778028116 | 19.44° C | 59% | 1015 hPa | - | - | - | - |
| 1778026316 | 19.44° C | 58% | 1015 hPa | - | - | - | - |
| 1778022716 | 20° C | 57% | 1016 hPa | - | - | - | - |
| 1778020916 | 20° C | 56% | 1016 hPa | - | - | - | - |
| 1778010115 | 20° C | 55% | 1015 hPa | - | - | - | - |
| 1778008315 | 20.56° C | 54% | 1015 hPa | - | - | - | - |
| 1778006515 | 20.56° C | 52% | 1015 hPa | - | - | - | - |
| 1778004715 | 21.11° C | 50% | 1015 hPa | - | - | - | - |
| 1777992114 | 23.89° C | 41% | 1014 hPa | - | - | - | - |
* Rain since midnight (hover to see other rain measurements)
** Current wind speed in m/s (hover to see current wind gust speed)